sensor_id;sensor_type;location;lat;lon;timestamp;temperature;humidity
13794;DHT22;31160;49.500;7.772;2023-05-10T00:01:58;13.00;99.90
13794;DHT22;31160;49.500;7.772;2023-05-10T00:04:25;13.10;99.90
13794;DHT22;31160;49.500;7.772;2023-05-10T00:06:54;13.10;99.90
13794;DHT22;31160;49.500;7.772;2023-05-10T00:09:21;13.20;99.90
13794;DHT22;31160;49.500;7.772;2023-05-10T00:11:48;13.10;99.90
13794;DHT22;31160;49.500;7.772;2023-05-10T00:14:14;13.10;99.90
13794;DHT22;31160;49.500;7.772;2023-05-10T00:16:41;13.10;99.90
13794;DHT22;31160;49.500;7.772;2023-05-10T00:19:08;13.20;99.90
13794;DHT22;31160;49.500;7.772;2023-05-10T00:21:35;13.20;99.90
13794;DHT22;31160;49.500;7.772;2023-05-10T00:24:02;13.20;99.90
13794;DHT22;31160;49.500;7.772;2023-05-10T00:26:28;13.20;99.90
13794;DHT22;31160;49.500;7.772;2023-05-10T00:28:55;13.10;99.90
13794;DHT22;31160;49.500;7.772;2023-05-10T00:31:23;13.00;99.90
13794;DHT22;31160;49.500;7.772;2023-05-10T00:33:50;13.10;99.90
13794;DHT22;31160;49.500;7.772;2023-05-10T00:36:16;13.20;99.90
13794;DHT22;31160;49.500;7.772;2023-05-10T00:38:43;13.20;99.90
13794;DHT22;31160;49.500;7.772;2023-05-10T00:41:10;13.30;99.90
13794;DHT22;31160;49.500;7.772;2023-05-10T00:43:38;13.20;99.90
13794;DHT22;31160;49.500;7.772;2023-05-10T00:46:05;13.30;99.90
13794;DHT22;31160;49.500;7.772;2023-05-10T00:48:33;13.20;99.90
13794;DHT22;31160;49.500;7.772;2023-05-10T00:51:01;13.30;99.90
13794;DHT22;31160;49.500;7.772;2023-05-10T00:53:28;13.10;99.90
13794;DHT22;31160;49.500;7.772;2023-05-10T00:55:55;13.20;99.90
13794;DHT22;31160;49.500;7.772;2023-05-10T00:58:22;13.30;99.90
13794;DHT22;31160;49.500;7.772;2023-05-10T01:00:50;13.00;99.90
13794;DHT22;31160;49.500;7.772;2023-05-10T01:03:18;13.10;99.90
13794;DHT22;31160;49.500;7.772;2023-05-10T01:05:45;13.20;99.90
13794;DHT22;31160;49.500;7.772;2023-05-10T01:08:11;13.10;99.90
13794;DHT22;31160;49.500;7.772;2023-05-10T01:10:38;13.20;99.90
13794;DHT22;31160;49.500;7.772;2023-05-10T01:13:05;13.00;99.90
13794;DHT22;31160;49.500;7.772;2023-05-10T01:15:32;13.10;99.90
13794;DHT22;31160;49.500;7.772;2023-05-10T01:17:59;13.20;99.90
13794;DHT22;31160;49.500;7.772;2023-05-10T01:20:35;13.10;99.90
13794;DHT22;31160;49.500;7.772;2023-05-10T01:33:52;13.20;99.90
13794;DHT22;31160;49.500;7.772;2023-05-10T01:36:47;13.30;99.90
13794;DHT22;31160;49.500;7.772;2023-05-10T01:39:24;13.30;99.90
13794;DHT22;31160;49.500;7.772;2023-05-10T01:42:08;13.30;99.90
13794;DHT22;31160;49.500;7.772;2023-05-10T01:44:46;13.30;99.90
13794;DHT22;31160;49.500;7.772;2023-05-10T01:47:19;13.40;99.90
13794;DHT22;31160;49.500;7.772;2023-05-10T01:49:52;13.40;99.90
13794;DHT22;31160;49.500;7.772;2023-05-10T01:52:25;13.40;99.90
13794;DHT22;31160;49.500;7.772;2023-05-10T01:54:55;13.40;99.90
13794;DHT22;31160;49.500;7.772;2023-05-10T01:57:28;13.40;99.90
13794;DHT22;31160;49.500;7.772;2023-05-10T01:59:59;13.50;99.90
13794;DHT22;31160;49.500;7.772;2023-05-10T02:02:27;13.40;99.90
13794;DHT22;31160;49.500;7.772;2023-05-10T02:04:56;13.30;99.90
13794;DHT22;31160;49.500;7.772;2023-05-10T02:07:24;13.20;99.90
13794;DHT22;31160;49.500;7.772;2023-05-10T02:09:51;13.10;99.90
13794;DHT22;31160;49.500;7.772;2023-05-10T02:12:18;13.20;99.90
13794;DHT22;31160;49.500;7.772;2023-05-10T02:14:47;13.20;99.90
13794;DHT22;31160;49.500;7.772;2023-05-10T02:17:14;13.20;99.90
13794;DHT22;31160;49.500;7.772;2023-05-10T02:19:43;13.30;99.90
13794;DHT22;31160;49.500;7.772;2023-05-10T02:22:11;13.30;99.90
13794;DHT22;31160;49.500;7.772;2023-05-10T02:24:39;13.30;99.90
13794;DHT22;31160;49.500;7.772;2023-05-10T02:27:07;13.30;99.90
13794;DHT22;31160;49.500;7.772;2023-05-10T02:29:36;13.40;99.90
13794;DHT22;31160;49.500;7.772;2023-05-10T02:32:03;13.20;99.90
13794;DHT22;31160;49.500;7.772;2023-05-10T02:34:31;13.10;99.90
13794;DHT22;31160;49.500;7.772;2023-05-10T02:36:59;13.00;99.90
13794;DHT22;31160;49.500;7.772;2023-05-10T02:39:28;13.00;99.90
13794;DHT22;31160;49.500;7.772;2023-05-10T02:41:57;12.90;99.90
13794;DHT22;31160;49.500;7.772;2023-05-10T02:44:25;12.90;99.90
13794;DHT22;31160;49.500;7.772;2023-05-10T02:46:54;12.90;99.90
13794;DHT22;31160;49.500;7.772;2023-05-10T02:49:22;12.90;99.90
13794;DHT22;31160;49.500;7.772;2023-05-10T02:51:53;12.70;99.90
13794;DHT22;31160;49.500;7.772;2023-05-10T02:54:27;12.70;99.90
13794;DHT22;31160;49.500;7.772;2023-05-10T02:57:00;12.80;99.90
13794;DHT22;31160;49.500;7.772;2023-05-10T02:59:30;12.90;99.90
13794;DHT22;31160;49.500;7.772;2023-05-10T03:01:57;12.90;99.90
13794;DHT22;31160;49.500;7.772;2023-05-10T03:04:24;13.00;99.90
13794;DHT22;31160;49.500;7.772;2023-05-10T03:06:53;13.00;99.90
13794;DHT22;31160;49.500;7.772;2023-05-10T03:09:20;13.00;99.90
13794;DHT22;31160;49.500;7.772;2023-05-10T03:17:18;12.90;99.90
13794;DHT22;31160;49.500;7.772;2023-05-10T03:19:55;12.90;99.90
13794;DHT22;31160;49.500;7.772;2023-05-10T03:22:32;12.80;99.90
13794;DHT22;31160;49.500;7.772;2023-05-10T03:25:05;12.90;99.90
13794;DHT22;31160;49.500;7.772;2023-05-10T03:27:34;12.80;99.90
13794;DHT22;31160;49.500;7.772;2023-05-10T03:30:02;12.80;99.90
13794;DHT22;31160;49.500;7.772;2023-05-10T03:32:32;12.90;99.90
13794;DHT22;31160;49.500;7.772;2023-05-10T03:35:01;12.90;99.90
13794;DHT22;31160;49.500;7.772;2023-05-10T03:37:27;12.90;99.90
13794;DHT22;31160;49.500;7.772;2023-05-10T03:39:54;12.70;99.90
13794;DHT22;31160;49.500;7.772;2023-05-10T03:42:21;12.90;99.90
13794;DHT22;31160;49.500;7.772;2023-05-10T03:44:48;12.90;99.90
13794;DHT22;31160;49.500;7.772;2023-05-10T03:47:16;12.90;99.90
13794;DHT22;31160;49.500;7.772;2023-05-10T03:49:43;12.90;99.90
13794;DHT22;31160;49.500;7.772;2023-05-10T03:52:11;13.00;99.90
13794;DHT22;31160;49.500;7.772;2023-05-10T03:54:38;13.00;99.90
13794;DHT22;31160;49.500;7.772;2023-05-10T03:57:05;13.00;99.90
13794;DHT22;31160;49.500;7.772;2023-05-10T03:59:32;12.90;99.90
13794;DHT22;31160;49.500;7.772;2023-05-10T04:01:58;12.90;99.90
13794;DHT22;31160;49.500;7.772;2023-05-10T04:04:25;13.00;99.90
13794;DHT22;31160;49.500;7.772;2023-05-10T04:06:52;13.10;99.90
13794;DHT22;31160;49.500;7.772;2023-05-10T04:09:19;13.00;99.90
13794;DHT22;31160;49.500;7.772;2023-05-10T04:11:46;13.00;99.90
13794;DHT22;31160;49.500;7.772;2023-05-10T04:14:12;13.00;99.90
13794;DHT22;31160;49.500;7.772;2023-05-10T04:16:39;13.10;99.90
13794;DHT22;31160;49.500;7.772;2023-05-10T04:19:06;13.10;99.90
13794;DHT22;31160;49.500;7.772;2023-05-10T04:21:33;13.20;99.90
13794;DHT22;31160;49.500;7.772;2023-05-10T04:23:59;13.20;99.90
13794;DHT22;31160;49.500;7.772;2023-05-10T04:26:26;13.30;99.90
13794;DHT22;31160;49.500;7.772;2023-05-10T04:28:53;13.20;99.90
13794;DHT22;31160;49.500;7.772;2023-05-10T04:31:19;13.30;99.90
13794;DHT22;31160;49.500;7.772;2023-05-10T04:33:46;13.30;99.90
13794;DHT22;31160;49.500;7.772;2023-05-10T04:36:13;13.40;99.90
13794;DHT22;31160;49.500;7.772;2023-05-10T04:38:40;13.40;99.90
13794;DHT22;31160;49.500;7.772;2023-05-10T04:41:07;13.50;99.90
13794;DHT22;31160;49.500;7.772;2023-05-10T04:43:35;13.60;99.90
13794;DHT22;31160;49.500;7.772;2023-05-10T04:46:03;13.60;99.90
13794;DHT22;31160;49.500;7.772;2023-05-10T04:48:30;13.40;99.90
13794;DHT22;31160;49.500;7.772;2023-05-10T04:50:56;13.50;99.90
13794;DHT22;31160;49.500;7.772;2023-05-10T04:53:23;13.50;99.90
13794;DHT22;31160;49.500;7.772;2023-05-10T04:55:50;13.70;99.90
13794;DHT22;31160;49.500;7.772;2023-05-10T04:58:17;13.70;99.90
13794;DHT22;31160;49.500;7.772;2023-05-10T05:00:43;13.70;99.90
13794;DHT22;31160;49.500;7.772;2023-05-10T05:03:10;14.00;99.90
13794;DHT22;31160;49.500;7.772;2023-05-10T05:05:37;14.10;99.90
13794;DHT22;31160;49.500;7.772;2023-05-10T05:08:05;14.20;99.90
13794;DHT22;31160;49.500;7.772;2023-05-10T05:10:32;14.20;99.90
13794;DHT22;31160;49.500;7.772;2023-05-10T05:12:59;14.30;99.90
13794;DHT22;31160;49.500;7.772;2023-05-10T05:15:26;14.30;99.90
13794;DHT22;31160;49.500;7.772;2023-05-10T05:17:53;14.50;99.90
13794;DHT22;31160;49.500;7.772;2023-05-10T05:20:20;14.70;99.90
13794;DHT22;31160;49.500;7.772;2023-05-10T05:22:47;14.60;99.90
13794;DHT22;31160;49.500;7.772;2023-05-10T05:25:13;14.80;99.90
13794;DHT22;31160;49.500;7.772;2023-05-10T05:27:41;14.70;99.90
13794;DHT22;31160;49.500;7.772;2023-05-10T05:30:08;14.60;99.90
13794;DHT22;31160;49.500;7.772;2023-05-10T05:32:35;14.40;99.90
13794;DHT22;31160;49.500;7.772;2023-05-10T05:35:02;14.30;99.90
13794;DHT22;31160;49.500;7.772;2023-05-10T05:37:29;14.40;99.90
13794;DHT22;31160;49.500;7.772;2023-05-10T05:39:56;14.20;99.90
13794;DHT22;31160;49.500;7.772;2023-05-10T05:42:22;14.60;99.90
13794;DHT22;31160;49.500;7.772;2023-05-10T05:44:49;15.50;99.90
13794;DHT22;31160;49.500;7.772;2023-05-10T05:47:16;16.40;99.90
13794;DHT22;31160;49.500;7.772;2023-05-10T05:49:43;15.80;99.90
13794;DHT22;31160;49.500;7.772;2023-05-10T05:52:12;15.60;99.90
13794;DHT22;31160;49.500;7.772;2023-05-10T05:54:39;14.90;99.90
13794;DHT22;31160;49.500;7.772;2023-05-10T05:57:06;15.20;99.90
13794;DHT22;31160;49.500;7.772;2023-05-10T05:59:32;15.50;99.90
13794;DHT22;31160;49.500;7.772;2023-05-10T06:01:59;15.60;99.90
13794;DHT22;31160;49.500;7.772;2023-05-10T06:04:27;15.50;99.90
13794;DHT22;31160;49.500;7.772;2023-05-10T06:06:54;15.30;99.90
13794;DHT22;31160;49.500;7.772;2023-05-10T06:09:21;15.30;99.90
13794;DHT22;31160;49.500;7.772;2023-05-10T06:11:47;15.50;99.90
13794;DHT22;31160;49.500;7.772;2023-05-10T06:14:14;15.60;99.90
13794;DHT22;31160;49.500;7.772;2023-05-10T06:16:41;15.90;99.90
13794;DHT22;31160;49.500;7.772;2023-05-10T06:19:08;15.90;99.90
13794;DHT22;31160;49.500;7.772;2023-05-10T06:21:34;16.10;99.90
13794;DHT22;31160;49.500;7.772;2023-05-10T06:24:01;16.40;99.90
13794;DHT22;31160;49.500;7.772;2023-05-10T06:26:29;16.70;99.90
13794;DHT22;31160;49.500;7.772;2023-05-10T06:28:56;17.00;99.90
13794;DHT22;31160;49.500;7.772;2023-05-10T06:31:22;16.90;99.90
13794;DHT22;31160;49.500;7.772;2023-05-10T06:33:49;17.10;99.90
13794;DHT22;31160;49.500;7.772;2023-05-10T06:36:16;17.50;99.90
13794;DHT22;31160;49.500;7.772;2023-05-10T06:38:43;17.20;99.90
13794;DHT22;31160;49.500;7.772;2023-05-10T06:41:09;16.70;99.90
13794;DHT22;31160;49.500;7.772;2023-05-10T06:43:36;16.40;99.90
13794;DHT22;31160;49.500;7.772;2023-05-10T06:46:06;16.30;99.90
13794;DHT22;31160;49.500;7.772;2023-05-10T06:48:33;16.10;99.90
13794;DHT22;31160;49.500;7.772;2023-05-10T06:51:00;16.00;99.90
13794;DHT22;31160;49.500;7.772;2023-05-10T06:53:27;15.60;99.90
13794;DHT22;31160;49.500;7.772;2023-05-10T06:55:54;15.70;99.90
13794;DHT22;31160;49.500;7.772;2023-05-10T06:58:21;15.90;99.90
13794;DHT22;31160;49.500;7.772;2023-05-10T07:00:47;15.70;99.90
13794;DHT22;31160;49.500;7.772;2023-05-10T07:03:14;15.90;99.90
13794;DHT22;31160;49.500;7.772;2023-05-10T07:05:41;16.10;99.90
13794;DHT22;31160;49.500;7.772;2023-05-10T07:08:08;16.10;99.90
13794;DHT22;31160;49.500;7.772;2023-05-10T07:10:35;16.00;99.90
13794;DHT22;31160;49.500;7.772;2023-05-10T07:13:02;16.10;99.90
13794;DHT22;31160;49.500;7.772;2023-05-10T07:15:29;16.00;99.90
13794;DHT22;31160;49.500;7.772;2023-05-10T07:17:56;16.10;99.90
13794;DHT22;31160;49.500;7.772;2023-05-10T07:20:24;16.40;99.90
13794;DHT22;31160;49.500;7.772;2023-05-10T07:22:51;16.40;99.90
13794;DHT22;31160;49.500;7.772;2023-05-10T07:25:17;16.80;99.90
13794;DHT22;31160;49.500;7.772;2023-05-10T07:27:44;16.90;99.90
13794;DHT22;31160;49.500;7.772;2023-05-10T07:30:12;16.70;99.90
13794;DHT22;31160;49.500;7.772;2023-05-10T07:32:38;16.70;99.90
13794;DHT22;31160;49.500;7.772;2023-05-10T07:35:06;16.80;99.90
13794;DHT22;31160;49.500;7.772;2023-05-10T07:37:33;16.70;99.90
13794;DHT22;31160;49.500;7.772;2023-05-10T07:40:00;16.70;99.90
13794;DHT22;31160;49.500;7.772;2023-05-10T07:42:27;16.30;99.90
13794;DHT22;31160;49.500;7.772;2023-05-10T07:44:53;16.00;99.90
13794;DHT22;31160;49.500;7.772;2023-05-10T07:47:20;16.00;99.90
13794;DHT22;31160;49.500;7.772;2023-05-10T07:49:47;16.10;99.90
13794;DHT22;31160;49.500;7.772;2023-05-10T07:52:14;16.30;99.90
13794;DHT22;31160;49.500;7.772;2023-05-10T07:54:42;16.30;99.90
13794;DHT22;31160;49.500;7.772;2023-05-10T07:57:08;16.20;99.90
13794;DHT22;31160;49.500;7.772;2023-05-10T07:59:35;16.40;99.90
13794;DHT22;31160;49.500;7.772;2023-05-10T08:02:02;16.60;99.90
13794;DHT22;31160;49.500;7.772;2023-05-10T08:04:29;16.70;99.90
13794;DHT22;31160;49.500;7.772;2023-05-10T08:06:56;16.40;99.90
13794;DHT22;31160;49.500;7.772;2023-05-10T08:09:23;16.40;99.90
13794;DHT22;31160;49.500;7.772;2023-05-10T08:11:50;16.50;99.90
13794;DHT22;31160;49.500;7.772;2023-05-10T08:14:17;16.70;99.90
13794;DHT22;31160;49.500;7.772;2023-05-10T08:16:44;17.10;99.90
13794;DHT22;31160;49.500;7.772;2023-05-10T08:19:11;17.30;99.90
13794;DHT22;31160;49.500;7.772;2023-05-10T08:21:38;17.00;99.90
13794;DHT22;31160;49.500;7.772;2023-05-10T08:24:07;16.50;99.90
13794;DHT22;31160;49.500;7.772;2023-05-10T08:26:33;16.50;99.90
13794;DHT22;31160;49.500;7.772;2023-05-10T08:29:00;16.20;99.90
13794;DHT22;31160;49.500;7.772;2023-05-10T08:31:27;15.90;99.90
13794;DHT22;31160;49.500;7.772;2023-05-10T08:33:54;16.10;99.90
13794;DHT22;31160;49.500;7.772;2023-05-10T08:36:20;15.90;99.90
13794;DHT22;31160;49.500;7.772;2023-05-10T08:38:50;16.00;99.90
13794;DHT22;31160;49.500;7.772;2023-05-10T08:41:22;15.80;99.90
13794;DHT22;31160;49.500;7.772;2023-05-10T08:43:51;15.60;99.90
13794;DHT22;31160;49.500;7.772;2023-05-10T08:46:19;15.40;99.90
13794;DHT22;31160;49.500;7.772;2023-05-10T08:48:49;15.40;99.90
13794;DHT22;31160;49.500;7.772;2023-05-10T08:51:19;15.30;99.90
13794;DHT22;31160;49.500;7.772;2023-05-10T08:53:46;15.10;99.90
13794;DHT22;31160;49.500;7.772;2023-05-10T08:56:13;14.80;99.90
13794;DHT22;31160;49.500;7.772;2023-05-10T08:58:42;14.60;99.90
13794;DHT22;31160;49.500;7.772;2023-05-10T09:01:08;14.50;99.90
13794;DHT22;31160;49.500;7.772;2023-05-10T09:03:38;14.60;99.90
13794;DHT22;31160;49.500;7.772;2023-05-10T09:06:05;14.90;99.90
13794;DHT22;31160;49.500;7.772;2023-05-10T09:08:33;14.70;99.90
13794;DHT22;31160;49.500;7.772;2023-05-10T09:11:01;14.70;99.90
13794;DHT22;31160;49.500;7.772;2023-05-10T09:13:28;14.50;99.90
13794;DHT22;31160;49.500;7.772;2023-05-10T09:15:55;14.90;99.90
13794;DHT22;31160;49.500;7.772;2023-05-10T09:18:27;15.00;99.90
13794;DHT22;31160;49.500;7.772;2023-05-10T09:20:54;15.30;99.90
13794;DHT22;31160;49.500;7.772;2023-05-10T09:23:21;15.70;99.90
13794;DHT22;31160;49.500;7.772;2023-05-10T09:26:02;16.00;99.90
13794;DHT22;31160;49.500;7.772;2023-05-10T09:28:34;16.60;99.90
13794;DHT22;31160;49.500;7.772;2023-05-10T09:31:16;16.90;99.90
13794;DHT22;31160;49.500;7.772;2023-05-10T09:33:47;17.40;99.90
13794;DHT22;31160;49.500;7.772;2023-05-10T09:36:15;17.20;99.90
13794;DHT22;31160;49.500;7.772;2023-05-10T09:38:51;17.60;99.90
13794;DHT22;31160;49.500;7.772;2023-05-10T09:41:19;17.40;99.90
13794;DHT22;31160;49.500;7.772;2023-05-10T09:43:47;17.00;99.90
13794;DHT22;31160;49.500;7.772;2023-05-10T09:46:17;16.80;99.90
13794;DHT22;31160;49.500;7.772;2023-05-10T09:48:48;16.50;99.90
13794;DHT22;31160;49.500;7.772;2023-05-10T09:51:21;16.50;99.90
13794;DHT22;31160;49.500;7.772;2023-05-10T09:53:49;16.70;99.90
13794;DHT22;31160;49.500;7.772;2023-05-10T09:56:35;16.90;99.90
13794;DHT22;31160;49.500;7.772;2023-05-10T09:59:03;17.10;99.90
13794;DHT22;31160;49.500;7.772;2023-05-10T10:01:30;17.10;99.90
13794;DHT22;31160;49.500;7.772;2023-05-10T10:03:58;17.10;99.90
13794;DHT22;31160;49.500;7.772;2023-05-10T10:06:25;17.70;99.90
13794;DHT22;31160;49.500;7.772;2023-05-10T10:08:56;18.10;99.90
13794;DHT22;31160;49.500;7.772;2023-05-10T10:11:23;17.80;99.90
13794;DHT22;31160;49.500;7.772;2023-05-10T10:13:50;18.10;99.90
13794;DHT22;31160;49.500;7.772;2023-05-10T10:16:17;18.40;99.90
13794;DHT22;31160;49.500;7.772;2023-05-10T10:18:44;18.50;99.90
13794;DHT22;31160;49.500;7.772;2023-05-10T10:21:16;18.60;99.90
13794;DHT22;31160;49.500;7.772;2023-05-10T10:23:43;19.00;99.90
13794;DHT22;31160;49.500;7.772;2023-05-10T10:26:10;19.10;99.90
13794;DHT22;31160;49.500;7.772;2023-05-10T10:31:57;19.70;99.90
13794;DHT22;31160;49.500;7.772;2023-05-10T10:34:30;18.80;99.90
13794;DHT22;31160;49.500;7.772;2023-05-10T10:36:58;19.10;99.90
13794;DHT22;31160;49.500;7.772;2023-05-10T10:39:30;18.90;99.90
13794;DHT22;31160;49.500;7.772;2023-05-10T10:41:58;19.10;99.90
13794;DHT22;31160;49.500;7.772;2023-05-10T10:57:24;18.10;99.90
13794;DHT22;31160;49.500;7.772;2023-05-10T11:00:25;18.00;99.90
13794;DHT22;31160;49.500;7.772;2023-05-10T11:05:37;16.90;99.90
13794;DHT22;31160;49.500;7.772;2023-05-10T11:08:13;16.70;99.90
13794;DHT22;31160;49.500;7.772;2023-05-10T11:10:48;16.80;99.90
13794;DHT22;31160;49.500;7.772;2023-05-10T11:13:15;17.00;99.90
13794;DHT22;31160;49.500;7.772;2023-05-10T11:15:48;17.10;99.90
13794;DHT22;31160;49.500;7.772;2023-05-10T11:18:18;16.90;99.90
13794;DHT22;31160;49.500;7.772;2023-05-10T11:20:51;16.90;99.90
13794;DHT22;31160;49.500;7.772;2023-05-10T11:23:18;17.10;99.90
13794;DHT22;31160;49.500;7.772;2023-05-10T11:25:46;17.20;99.90
13794;DHT22;31160;49.500;7.772;2023-05-10T11:28:14;17.60;99.90
13794;DHT22;31160;49.500;7.772;2023-05-10T11:30:43;17.90;99.90
13794;DHT22;31160;49.500;7.772;2023-05-10T11:33:15;18.10;99.90
13794;DHT22;31160;49.500;7.772;2023-05-10T11:35:43;18.10;99.90
13794;DHT22;31160;49.500;7.772;2023-05-10T11:38:11;18.10;99.90
13794;DHT22;31160;49.500;7.772;2023-05-10T11:40:38;18.40;99.90
13794;DHT22;31160;49.500;7.772;2023-05-10T11:43:06;18.30;99.90
13794;DHT22;31160;49.500;7.772;2023-05-10T11:45:33;18.50;99.90
13794;DHT22;31160;49.500;7.772;2023-05-10T11:48:01;17.80;99.90
13794;DHT22;31160;49.500;7.772;2023-05-10T11:50:29;17.70;99.90
13794;DHT22;31160;49.500;7.772;2023-05-10T11:52:56;17.80;99.90
13794;DHT22;31160;49.500;7.772;2023-05-10T11:55:23;17.80;99.90
13794;DHT22;31160;49.500;7.772;2023-05-10T11:58:00;18.10;99.90
13794;DHT22;31160;49.500;7.772;2023-05-10T12:00:27;18.60;99.90
13794;DHT22;31160;49.500;7.772;2023-05-10T12:02:54;18.40;99.90
13794;DHT22;31160;49.500;7.772;2023-05-10T12:05:21;18.80;99.90
13794;DHT22;31160;49.500;7.772;2023-05-10T12:07:48;19.20;99.10
13794;DHT22;31160;49.500;7.772;2023-05-10T12:10:15;19.50;98.70
13794;DHT22;31160;49.500;7.772;2023-05-10T12:12:45;19.10;98.50
13794;DHT22;31160;49.500;7.772;2023-05-10T12:15:20;19.40;98.60
13794;DHT22;31160;49.500;7.772;2023-05-10T12:17:48;19.40;99.20
13794;DHT22;31160;49.500;7.772;2023-05-10T12:20:20;20.00;98.40
13794;DHT22;31160;49.500;7.772;2023-05-10T12:22:55;20.40;97.20
13794;DHT22;31160;49.500;7.772;2023-05-10T12:25:30;20.40;96.70
13794;DHT22;31160;49.500;7.772;2023-05-10T12:27:58;20.20;96.60
13794;DHT22;31160;49.500;7.772;2023-05-10T12:30:29;19.90;96.50
13794;DHT22;31160;49.500;7.772;2023-05-10T12:33:07;20.10;97.00
13794;DHT22;31160;49.500;7.772;2023-05-10T12:35:49;19.90;96.40
13794;DHT22;31160;49.500;7.772;2023-05-10T12:38:27;19.70;95.90
13794;DHT22;31160;49.500;7.772;2023-05-10T12:40:57;19.30;96.60
13794;DHT22;31160;49.500;7.772;2023-05-10T12:43:24;19.20;96.90
13794;DHT22;31160;49.500;7.772;2023-05-10T12:45:51;19.40;97.00
13794;DHT22;31160;49.500;7.772;2023-05-10T12:48:17;19.80;96.80
13794;DHT22;31160;49.500;7.772;2023-05-10T12:50:44;19.40;97.00
13794;DHT22;31160;49.500;7.772;2023-05-10T12:53:13;19.00;97.30
13794;DHT22;31160;49.500;7.772;2023-05-10T12:55:40;19.00;97.20
13794;DHT22;31160;49.500;7.772;2023-05-10T12:58:06;18.80;98.10
13794;DHT22;31160;49.500;7.772;2023-05-10T13:00:33;19.00;98.00
13794;DHT22;31160;49.500;7.772;2023-05-10T13:03:00;19.20;97.80
13794;DHT22;31160;49.500;7.772;2023-05-10T13:05:27;19.40;96.90
13794;DHT22;31160;49.500;7.772;2023-05-10T13:07:53;19.60;97.40
13794;DHT22;31160;49.500;7.772;2023-05-10T13:10:20;20.00;97.30
13794;DHT22;31160;49.500;7.772;2023-05-10T13:12:49;20.50;96.30
13794;DHT22;31160;49.500;7.772;2023-05-10T13:15:15;20.40;95.70
13794;DHT22;31160;49.500;7.772;2023-05-10T13:17:42;20.10;96.00
13794;DHT22;31160;49.500;7.772;2023-05-10T13:20:10;20.20;96.00
13794;DHT22;31160;49.500;7.772;2023-05-10T13:22:37;20.30;96.10
13794;DHT22;31160;49.500;7.772;2023-05-10T13:25:06;20.00;95.20
13794;DHT22;31160;49.500;7.772;2023-05-10T13:27:33;20.30;94.80
13794;DHT22;31160;49.500;7.772;2023-05-10T13:30:00;20.40;94.20
13794;DHT22;31160;49.500;7.772;2023-05-10T13:32:26;20.00;94.70
13794;DHT22;31160;49.500;7.772;2023-05-10T13:34:54;19.70;94.80
13794;DHT22;31160;49.500;7.772;2023-05-10T13:37:21;19.90;94.60
13794;DHT22;31160;49.500;7.772;2023-05-10T13:39:48;19.70;94.50
13794;DHT22;31160;49.500;7.772;2023-05-10T13:42:15;19.60;95.10
13794;DHT22;31160;49.500;7.772;2023-05-10T13:44:42;19.60;95.40
13794;DHT22;31160;49.500;7.772;2023-05-10T13:47:09;19.30;94.90
13794;DHT22;31160;49.500;7.772;2023-05-10T13:49:36;18.90;95.00
13794;DHT22;31160;49.500;7.772;2023-05-10T13:52:03;18.80;94.90
13794;DHT22;31160;49.500;7.772;2023-05-10T13:54:34;19.10;95.50
13794;DHT22;31160;49.500;7.772;2023-05-10T13:57:00;19.20;94.70
13794;DHT22;31160;49.500;7.772;2023-05-10T13:59:28;19.20;95.30
13794;DHT22;31160;49.500;7.772;2023-05-10T14:01:55;19.70;93.20
13794;DHT22;31160;49.500;7.772;2023-05-10T14:04:22;19.70;93.10
13794;DHT22;31160;49.500;7.772;2023-05-10T14:06:49;19.50;93.50
13794;DHT22;31160;49.500;7.772;2023-05-10T14:09:16;19.50;93.10
13794;DHT22;31160;49.500;7.772;2023-05-10T14:11:43;19.60;93.20
13794;DHT22;31160;49.500;7.772;2023-05-10T14:14:11;19.70;93.90
13794;DHT22;31160;49.500;7.772;2023-05-10T14:16:43;19.80;92.60
13794;DHT22;31160;49.500;7.772;2023-05-10T14:19:11;19.60;93.10
13794;DHT22;31160;49.500;7.772;2023-05-10T14:21:38;19.70;94.10
13794;DHT22;31160;49.500;7.772;2023-05-10T14:24:05;19.60;93.70
13794;DHT22;31160;49.500;7.772;2023-05-10T14:26:33;19.40;93.50
13794;DHT22;31160;49.500;7.772;2023-05-10T14:29:03;19.60;92.50
13794;DHT22;31160;49.500;7.772;2023-05-10T14:31:31;19.40;92.70
13794;DHT22;31160;49.500;7.772;2023-05-10T14:33:58;18.90;92.20
13794;DHT22;31160;49.500;7.772;2023-05-10T14:36:25;18.80;92.80
13794;DHT22;31160;49.500;7.772;2023-05-10T14:38:52;18.80;92.20
13794;DHT22;31160;49.500;7.772;2023-05-10T14:41:19;18.70;92.40
13794;DHT22;31160;49.500;7.772;2023-05-10T14:43:45;18.90;91.60
13794;DHT22;31160;49.500;7.772;2023-05-10T14:46:12;19.10;91.70
13794;DHT22;31160;49.500;7.772;2023-05-10T14:48:39;18.60;93.00
13794;DHT22;31160;49.500;7.772;2023-05-10T14:51:06;18.90;92.20
13794;DHT22;31160;49.500;7.772;2023-05-10T14:53:33;19.10;91.80
13794;DHT22;31160;49.500;7.772;2023-05-10T14:56:00;19.00;92.70
13794;DHT22;31160;49.500;7.772;2023-05-10T14:58:27;18.90;92.90
13794;DHT22;31160;49.500;7.772;2023-05-10T15:00:54;19.20;92.50
13794;DHT22;31160;49.500;7.772;2023-05-10T15:03:21;19.30;92.20
13794;DHT22;31160;49.500;7.772;2023-05-10T15:05:49;19.30;92.00
13794;DHT22;31160;49.500;7.772;2023-05-10T15:08:16;19.10;92.00
13794;DHT22;31160;49.500;7.772;2023-05-10T15:10:43;19.00;92.60
13794;DHT22;31160;49.500;7.772;2023-05-10T15:13:09;18.90;92.20
13794;DHT22;31160;49.500;7.772;2023-05-10T15:15:36;18.80;92.40
13794;DHT22;31160;49.500;7.772;2023-05-10T15:18:03;18.90;92.70
13794;DHT22;31160;49.500;7.772;2023-05-10T15:20:31;19.00;92.30
13794;DHT22;31160;49.500;7.772;2023-05-10T15:22:57;18.90;92.40
13794;DHT22;31160;49.500;7.772;2023-05-10T15:25:24;19.00;92.30
13794;DHT22;31160;49.500;7.772;2023-05-10T15:27:51;18.90;92.80
13794;DHT22;31160;49.500;7.772;2023-05-10T15:30:18;18.70;93.40
13794;DHT22;31160;49.500;7.772;2023-05-10T15:32:44;18.80;92.80
13794;DHT22;31160;49.500;7.772;2023-05-10T15:35:11;18.80;92.70
13794;DHT22;31160;49.500;7.772;2023-05-10T15:37:38;18.60;92.80
13794;DHT22;31160;49.500;7.772;2023-05-10T15:40:05;18.80;92.60
13794;DHT22;31160;49.500;7.772;2023-05-10T15:42:32;18.80;93.40
13794;DHT22;31160;49.500;7.772;2023-05-10T15:44:59;18.80;93.20
13794;DHT22;31160;49.500;7.772;2023-05-10T15:47:27;18.70;92.70
13794;DHT22;31160;49.500;7.772;2023-05-10T15:49:56;18.80;92.80
13794;DHT22;31160;49.500;7.772;2023-05-10T15:52:23;18.70;92.80
13794;DHT22;31160;49.500;7.772;2023-05-10T15:54:50;19.00;92.40
13794;DHT22;31160;49.500;7.772;2023-05-10T15:57:17;18.90;92.50
13794;DHT22;31160;49.500;7.772;2023-05-10T15:59:43;19.00;93.00
13794;DHT22;31160;49.500;7.772;2023-05-10T16:02:11;19.20;92.50
13794;DHT22;31160;49.500;7.772;2023-05-10T16:04:38;19.40;92.40
13794;DHT22;31160;49.500;7.772;2023-05-10T16:07:04;19.20;92.80
13794;DHT22;31160;49.500;7.772;2023-05-10T16:09:31;19.10;93.30
13794;DHT22;31160;49.500;7.772;2023-05-10T16:11:58;19.40;92.50